Time;durP1;ratioP1;P1;durP2;ratioP2;P2;SDS_P1;SDS_P2;PMS_P1;PMS_P2;Temp;Humidity;BMP_temperature;BMP_pressure;BME280_temperature;BME280_humidity;BME280_pressure;Samples;Min_cycle;Max_cycle;Signal;HPM_P1;HPM_P2
2021/05/25 00:01:33;;;;;;;4.25;2.12;;;18.60;99.90;;;;;;4349413;32;20094;-70
2021/05/25 00:03:59;;;;;;;4.12;2.00;;;18.60;99.90;;;;;;4337422;32;20074;-68
2021/05/25 00:06:25;;;;;;;5.12;2.58;;;18.60;99.90;;;;;;4349620;32;20158;-70
2021/05/25 00:08:52;;;;;;;3.95;2.25;;;18.50;99.90;;;;;;4350092;32;20076;-70
2021/05/25 00:11:18;;;;;;;4.10;2.30;;;18.60;99.90;;;;;;4349474;32;20150;-69
2021/05/25 00:13:44;;;;;;;2.33;2.10;;;18.50;99.90;;;;;;4338674;32;20547;-69
2021/05/25 00:16:10;;;;;;;2.50;2.30;;;18.40;99.90;;;;;;4351812;32;20448;-70
2021/05/25 00:18:37;;;;;;;2.70;2.35;;;18.40;99.90;;;;;;4377677;32;20545;-69
2021/05/25 00:21:04;;;;;;;4.15;2.42;;;18.40;99.90;;;;;;4364717;32;20507;-69
2021/05/25 00:23:31;;;;;;;3.42;2.00;;;18.40;99.90;;;;;;4351965;32;20251;-70
2021/05/25 00:25:57;;;;;;;4.93;2.30;;;18.50;99.90;;;;;;4376551;32;20077;-69
2021/05/25 00:28:23;;;;;;;3.75;2.50;;;18.40;99.90;;;;;;4364203;32;20574;-70
2021/05/25 00:30:49;;;;;;;2.45;2.10;;;18.40;99.90;;;;;;4364484;32;20066;-70
2021/05/25 00:33:16;;;;;;;2.22;2.03;;;18.40;99.90;;;;;;4351782;32;20101;-70
2021/05/25 00:35:42;;;;;;;3.17;2.30;;;18.30;99.90;;;;;;4364297;32;20069;-68
2021/05/25 00:38:11;;;;;;;3.42;2.00;;;18.20;99.90;;;;;;4363996;32;20089;-69
2021/05/25 00:40:38;;;;;;;2.87;2.10;;;18.20;99.90;;;;;;4351939;32;20078;-70
2021/05/25 00:43:04;;;;;;;3.45;2.20;;;18.20;99.90;;;;;;4363775;32;20137;-70
2021/05/25 00:45:30;;;;;;;2.33;1.90;;;18.10;99.90;;;;;;4351803;32;20144;-70
2021/05/25 00:47:57;;;;;;;2.72;2.00;;;18.10;99.90;;;;;;4361748;32;20560;-69
2021/05/25 00:50:28;;;;;;;2.65;2.10;;;18.10;99.90;;;;;;4337117;32;20178;-70
2021/05/25 00:52:58;;;;;;;2.87;2.25;;;18.10;99.90;;;;;;4337022;32;20163;-69
2021/05/25 00:55:27;;;;;;;4.93;2.28;;;18.10;99.90;;;;;;4361208;32;20513;-70
2021/05/25 00:57:54;;;;;;;2.40;1.87;;;18.00;99.90;;;;;;4349076;32;20094;-68
2021/05/25 01:00:48;;;;;;;3.70;2.12;;;18.00;99.90;;;;;;4361580;32;20156;-70
2021/05/25 01:03:16;;;;;;;4.65;2.65;;;18.00;99.90;;;;;;4334704;32;20097;-69
2021/05/25 01:05:42;;;;;;;8.15;2.72;;;18.00;99.90;;;;;;4336605;32;20090;-69
2021/05/25 01:08:09;;;;;;;2.92;2.62;;;18.00;99.90;;;;;;4361255;32;20074;-71
2021/05/25 01:10:50;;;;;;;4.07;2.40;;;18.00;99.90;;;;;;4349165;32;20178;-70
2021/05/25 01:13:22;;;;;;;3.90;2.60;;;17.90;99.90;;;;;;4350897;32;20085;-69
2021/05/25 01:15:49;;;;;;;4.65;2.20;;;17.90;99.90;;;;;;4348181;32;20603;-70
2021/05/25 01:18:15;;;;;;;3.70;2.20;;;17.90;99.90;;;;;;4361001;32;20078;-69
2021/05/25 01:20:42;;;;;;;5.35;2.33;;;17.90;99.90;;;;;;4348449;32;20075;-71
2021/05/25 01:23:09;;;;;;;5.45;2.42;;;17.90;99.90;;;;;;4373019;32;20085;-70
2021/05/25 01:25:37;;;;;;;2.67;2.15;;;17.90;99.90;;;;;;4348550;32;20166;-69
2021/05/25 01:28:05;;;;;;;4.93;1.95;;;17.90;99.90;;;;;;4373183;32;20528;-69
2021/05/25 01:30:40;;;;;;;3.55;1.90;;;17.90;99.90;;;;;;4373303;32;20065;-70
2021/05/25 01:33:07;;;;;;;4.43;2.05;;;18.00;99.90;;;;;;4373611;32;20219;-69
2021/05/25 01:35:34;;;;;;;3.45;2.00;;;17.90;99.90;;;;;;4360885;32;20130;-69
2021/05/25 01:38:01;;;;;;;2.22;2.03;;;17.90;99.90;;;;;;4348954;32;20497;-70
2021/05/25 01:40:28;;;;;;;3.37;2.15;;;18.00;99.90;;;;;;4336497;32;20125;-70
2021/05/25 01:42:54;;;;;;;4.05;2.15;;;17.90;99.90;;;;;;4361020;32;20165;-70
2021/05/25 01:45:24;;;;;;;3.22;1.85;;;17.90;99.90;;;;;;4348363;32;20100;-70
2021/05/25 01:47:51;;;;;;;4.45;2.17;;;17.90;99.90;;;;;;4336345;32;20071;-69
2021/05/25 01:50:18;;;;;;;2.10;1.90;;;18.00;99.90;;;;;;4348675;32;20062;-70
2021/05/25 01:52:48;;;;;;;4.28;2.20;;;18.00;99.90;;;;;;4348575;32;20225;-70
2021/05/25 01:55:23;;;;;;;4.32;2.10;;;18.10;99.90;;;;;;4360454;32;20074;-69
2021/05/25 01:57:49;;;;;;;2.75;1.90;;;18.10;99.90;;;;;;4349204;32;20071;-70
2021/05/25 02:00:16;;;;;;;3.72;2.05;;;18.10;99.90;;;;;;4348544;32;20063;-70
2021/05/25 02:02:42;;;;;;;3.00;1.80;;;18.20;99.90;;;;;;4339882;32;20090;-69
2021/05/25 02:05:09;;;;;;;3.15;1.77;;;18.20;99.90;;;;;;4348785;32;20059;-69
2021/05/25 02:07:35;;;;;;;3.05;1.80;;;18.30;99.90;;;;;;4336364;32;20164;-69
2021/05/25 02:10:01;;;;;;;4.20;1.83;;;18.30;99.90;;;;;;4361858;32;20519;-70
2021/05/25 02:12:28;;;;;;;2.65;1.87;;;18.30;99.90;;;;;;4360703;32;20093;-70
2021/05/25 02:14:54;;;;;;;2.37;2.10;;;18.30;99.90;;;;;;4353656;32;20113;-71
2021/05/25 02:17:22;;;;;;;3.70;2.00;;;18.40;99.90;;;;;;4360663;32;20106;-70
2021/05/25 02:19:48;;;;;;;4.18;2.00;;;18.40;99.90;;;;;;4359980;32;20087;-70
2021/05/25 02:22:14;;;;;;;2.15;1.90;;;18.40;99.90;;;;;;4372548;32;20058;-70
2021/05/25 02:24:41;;;;;;;3.10;2.20;;;18.30;99.90;;;;;;4360143;32;20090;-69
2021/05/25 02:27:07;;;;;;;2.37;1.92;;;18.40;99.90;;;;;;4347391;32;20525;-70
2021/05/25 02:29:34;;;;;;;2.30;1.90;;;18.40;99.90;;;;;;4347159;32;20520;-70
2021/05/25 02:32:00;;;;;;;2.83;2.03;;;18.40;99.90;;;;;;4360074;32;20079;-70
2021/05/25 02:34:26;;;;;;;5.93;2.20;;;18.60;99.90;;;;;;4372238;32;20062;-70
2021/05/25 02:36:52;;;;;;;3.42;1.98;;;18.50;99.90;;;;;;4365000;32;20179;-70
2021/05/25 02:39:19;;;;;;;4.10;2.22;;;18.50;99.90;;;;;;4335462;32;20089;-70
2021/05/25 02:41:45;;;;;;;3.62;1.95;;;18.40;99.90;;;;;;4347717;32;20464;-69
2021/05/25 02:44:11;;;;;;;8.63;2.60;;;18.40;99.90;;;;;;4335015;32;20078;-70
2021/05/25 02:46:37;;;;;;;2.28;1.67;;;18.30;99.90;;;;;;4347624;32;20059;-69
2021/05/25 02:49:03;;;;;;;2.62;1.70;;;18.30;99.90;;;;;;4359697;32;20074;-70
2021/05/25 02:51:30;;;;;;;7.37;1.87;;;18.40;99.90;;;;;;4347552;32;20074;-69
2021/05/25 02:53:56;;;;;;;6.80;2.08;;;18.40;99.90;;;;;;4323232;32;20098;-70
2021/05/25 02:56:22;;;;;;;3.80;2.10;;;18.60;99.90;;;;;;4347954;32;20150;-70
2021/05/25 02:58:48;;;;;;;3.42;2.00;;;18.40;99.90;;;;;;4347556;32;20085;-70
2021/05/25 03:01:15;;;;;;;4.05;1.90;;;18.50;99.90;;;;;;4335698;32;20066;-69
2021/05/25 03:03:41;;;;;;;3.87;1.90;;;18.60;99.90;;;;;;4360208;32;20166;-70
2021/05/25 03:06:07;;;;;;;4.07;2.08;;;18.80;99.90;;;;;;4347421;32;20445;-71
2021/05/25 03:08:33;;;;;;;5.78;2.30;;;18.90;99.90;;;;;;4360017;32;20078;-70
2021/05/25 03:11:00;;;;;;;2.70;2.17;;;18.90;99.90;;;;;;4334981;32;20081;-70
2021/05/25 03:13:26;;;;;;;4.70;2.30;;;18.90;99.90;;;;;;4347333;32;20074;-71
2021/05/25 03:15:52;;;;;;;4.10;2.40;;;19.00;99.90;;;;;;4371459;32;20063;-70
2021/05/25 03:18:18;;;;;;;6.47;2.65;;;19.00;99.90;;;;;;4372596;32;20077;-70
2021/05/25 03:20:46;;;;;;;5.53;2.40;;;19.10;99.90;;;;;;4361127;32;20145;-70
2021/05/25 03:23:12;;;;;;;7.00;2.50;;;19.10;99.90;;;;;;4371918;32;20067;-70
2021/05/25 03:25:39;;;;;;;4.47;2.30;;;19.00;99.90;;;;;;4372034;32;20143;-70
2021/05/25 03:28:05;;;;;;;4.60;2.22;;;19.10;99.90;;;;;;4359938;32;20151;-69
2021/05/25 03:30:32;;;;;;;4.40;2.25;;;19.10;99.90;;;;;;4371885;32;20158;-70
2021/05/25 03:32:58;;;;;;;2.12;1.83;;;19.00;99.90;;;;;;4347451;32;20497;-69
2021/05/25 03:35:25;;;;;;;4.72;2.10;;;19.10;99.90;;;;;;4359306;32;20090;-69
2021/05/25 03:37:51;;;;;;;4.28;2.28;;;19.30;99.90;;;;;;4347792;32;20098;-69
2021/05/25 03:40:18;;;;;;;4.55;2.30;;;19.30;99.90;;;;;;4347119;32;20078;-70
2021/05/25 03:42:49;;;;;;;2.80;1.95;;;19.30;99.90;;;;;;4347370;32;20110;-69
2021/05/25 03:45:16;;;;;;;6.40;2.60;;;19.30;99.90;;;;;;4347461;32;20152;-70
2021/05/25 03:47:42;;;;;;;2.92;2.12;;;19.20;99.90;;;;;;4336822;32;20067;-69
2021/05/25 03:50:10;;;;;;;4.22;2.62;;;19.20;99.90;;;;;;4325944;32;20074;-69
2021/05/25 03:52:39;;;;;;;4.72;2.30;;;19.30;99.90;;;;;;4350083;32;20099;-69
2021/05/25 03:55:21;;;;;;;4.25;2.08;;;19.40;99.90;;;;;;4355829;32;20063;-70
2021/05/25 04:00:33;;;;;;;7.87;2.33;;;19.60;99.90;;;;;;4341542;32;20140;-70
2021/05/25 04:02:59;;;;;;;5.82;2.10;;;19.50;99.90;;;;;;4337753;32;20074;-70
2021/05/25 04:05:26;;;;;;;2.95;2.15;;;19.60;99.90;;;;;;4325503;32;20081;-70
2021/05/25 04:07:52;;;;;;;4.15;1.80;;;19.90;99.90;;;;;;4350017;32;20070;-70
2021/05/25 04:10:18;;;;;;;5.12;2.53;;;19.90;99.90;;;;;;4362405;32;20085;-69
2021/05/25 04:12:44;;;;;;;6.37;2.10;;;19.70;99.90;;;;;;4349461;32;20075;-70
2021/05/25 04:15:11;;;;;;;4.20;2.42;;;19.90;99.90;;;;;;4347108;32;20082;-70
2021/05/25 04:17:40;;;;;;;2.20;2.00;;;19.70;99.90;;;;;;4339772;32;20093;-70
2021/05/25 04:20:09;;;;;;;4.32;1.83;;;19.90;99.90;;;;;;4352774;32;20165;-69
2021/05/25 04:22:35;;;;;;;2.90;1.95;;;19.80;99.90;;;;;;4352129;32;20066;-69
2021/05/25 04:25:02;;;;;;;4.37;2.22;;;19.70;99.90;;;;;;4364582;32;20078;-70
2021/05/25 04:27:28;;;;;;;3.80;1.95;;;19.90;99.90;;;;;;4364477;32;20092;-69
2021/05/25 04:29:54;;;;;;;3.20;2.00;;;20.30;99.90;;;;;;4351837;32;20066;-70
2021/05/25 04:32:21;;;;;;;2.62;2.28;;;20.40;99.90;;;;;;4376593;32;20054;-70
2021/05/25 04:34:47;;;;;;;2.97;2.30;;;21.40;99.90;;;;;;4364108;32;20070;-68
2021/05/25 04:37:13;;;;;;;3.80;2.30;;;20.90;99.90;;;;;;4361272;32;20077;-70
2021/05/25 04:39:40;;;;;;;4.85;2.50;;;20.90;99.90;;;;;;4349391;32;20071;-70
2021/05/25 04:42:06;;;;;;;4.95;2.40;;;20.70;99.90;;;;;;4348872;32;20461;-70
2021/05/25 04:44:32;;;;;;;3.47;2.35;;;20.60;99.90;;;;;;4348934;32;20081;-70
2021/05/25 04:46:58;;;;;;;3.15;2.22;;;20.70;99.90;;;;;;4349010;32;20074;-70
2021/05/25 04:49:25;;;;;;;5.15;2.70;;;20.70;99.90;;;;;;4337455;32;20098;-70
2021/05/25 04:51:51;;;;;;;9.25;2.78;;;20.20;99.90;;;;;;4365884;32;20157;-69
2021/05/25 04:54:17;;;;;;;4.05;2.47;;;20.40;99.90;;;;;;4350551;32;20067;-70
2021/05/25 04:56:44;;;;;;;5.05;2.47;;;20.30;99.90;;;;;;4336719;32;20074;-70
2021/05/25 04:59:10;;;;;;;4.53;2.05;;;20.10;99.90;;;;;;4348303;32;20062;-70
2021/05/25 05:01:36;;;;;;;4.28;2.20;;;20.20;99.90;;;;;;4348638;32;21173;-69
2021/05/25 05:04:03;;;;;;;4.75;2.90;;;20.40;99.90;;;;;;4336648;32;20070;-71
2021/05/25 05:06:29;;;;;;;6.55;2.87;;;20.20;99.90;;;;;;4336810;32;20070;-70
2021/05/25 05:08:56;;;;;;;4.78;2.92;;;20.20;99.90;;;;;;4348759;32;20074;-69
2021/05/25 05:11:22;;;;;;;6.43;2.72;;;20.20;99.90;;;;;;4336882;32;20063;-70
2021/05/25 05:13:48;;;;;;;3.42;2.20;;;20.30;99.90;;;;;;4362362;32;20209;-68
2021/05/25 05:16:14;;;;;;;6.68;2.70;;;20.30;99.90;;;;;;4375706;32;20061;-69
2021/05/25 05:18:41;;;;;;;9.52;2.80;;;20.30;99.90;;;;;;4351167;32;20070;-69
2021/05/25 05:21:07;;;;;;;5.70;2.45;;;20.40;99.90;;;;;;4350978;32;20170;-67
2021/05/25 05:23:34;;;;;;;5.47;2.40;;;20.40;99.90;;;;;;4363506;32;20082;-69
2021/05/25 05:26:01;;;;;;;5.57;2.60;;;20.30;99.90;;;;;;4363277;32;20119;-68
2021/05/25 05:28:27;;;;;;;5.30;2.60;;;20.20;99.90;;;;;;4376132;32;20166;-69
2021/05/25 05:30:54;;;;;;;5.22;2.45;;;20.10;99.90;;;;;;4363271;32;20085;-69
2021/05/25 05:33:21;;;;;;;4.43;2.58;;;20.30;99.90;;;;;;4363364;32;20111;-69
2021/05/25 05:35:47;;;;;;;6.97;2.67;;;20.30;99.90;;;;;;4363232;32;20066;-69
2021/05/25 05:38:13;;;;;;;5.45;2.40;;;20.50;99.90;;;;;;4375937;32;20086;-68
2021/05/25 05:40:39;;;;;;;4.22;2.53;;;21.00;99.90;;;;;;4350996;32;20073;-68
2021/05/25 05:43:06;;;;;;;3.28;2.20;;;21.30;99.30;;;;;;4365220;32;20150;-69
2021/05/25 05:47:27;;;;;;;10.63;2.78;;;21.70;96.10;;;;;;3857323;37;19965;-68
2021/05/25 05:49:53;;;;;;;6.90;2.30;;;21.80;94.30;;;;;;4405941;32;20515;-71
2021/05/25 05:52:19;;;;;;;4.72;2.70;;;21.10;95.00;;;;;;4380861;32;20158;-71
2021/05/25 05:54:47;;;;;;;15.00;3.33;;;21.20;94.70;;;;;;4419529;32;20078;-70
2021/05/25 05:57:13;;;;;;;7.32;2.92;;;21.10;94.80;;;;;;4368224;32;20066;-70
2021/05/25 05:59:39;;;;;;;9.50;2.75;;;20.90;93.20;;;;;;4393934;32;20087;-70
2021/05/25 06:02:05;;;;;;;6.12;2.08;;;20.80;94.70;;;;;;4380902;32;20068;-71
2021/05/25 06:04:32;;;;;;;6.25;2.20;;;21.00;94.20;;;;;;4420723;32;20076;-69
2021/05/25 06:06:58;;;;;;;12.20;3.42;;;20.80;95.10;;;;;;4381114;32;20093;-71
2021/05/25 06:09:24;;;;;;;12.75;2.50;;;20.90;95.90;;;;;;4419487;32;20137;-70
2021/05/25 06:11:53;;;;;;;7.78;2.55;;;21.20;94.90;;;;;;4393093;32;20242;-71
2021/05/25 06:14:20;;;;;;;2.45;1.90;;;21.70;92.50;;;;;;4414369;32;20069;-71
2021/05/25 06:16:46;;;;;;;6.15;2.03;;;21.90;92.80;;;;;;4352940;32;20231;-70
2021/05/25 06:19:12;;;;;;;7.70;2.20;;;22.00;90.90;;;;;;4365402;32;20081;-69
2021/05/25 06:21:39;;;;;;;6.50;2.83;;;22.30;90.30;;;;;;4377871;32;20217;-69
2021/05/25 06:24:05;;;;;;;10.52;2.30;;;22.10;90.30;;;;;;4377826;32;20066;-71
2021/05/25 06:26:31;;;;;;;7.80;2.50;;;21.70;91.80;;;;;;4365039;32;20066;-72
2021/05/25 06:28:58;;;;;;;9.27;2.47;;;21.60;91.80;;;;;;4365298;32;20102;-72
2021/05/25 06:31:24;;;;;;;7.70;2.70;;;21.50;92.30;;;;;;4353162;32;20073;-69
2021/05/25 06:33:50;;;;;;;3.78;1.75;;;21.50;93.30;;;;;;4366114;32;20076;-67
2021/05/25 06:36:16;;;;;;;10.82;3.25;;;21.50;92.80;;;;;;4379233;32;20082;-69
2021/05/25 06:38:43;;;;;;;4.10;2.42;;;21.90;92.70;;;;;;4355571;32;20099;-69
2021/05/25 06:41:09;;;;;;;8.07;3.00;;;21.80;92.60;;;;;;4390558;32;20069;-69
2021/05/25 06:43:35;;;;;;;6.65;2.40;;;22.10;91.70;;;;;;4389600;32;20101;-67
2021/05/25 06:46:02;;;;;;;5.53;2.78;;;21.90;91.90;;;;;;4352888;32;20081;-68
2021/05/25 06:48:28;;;;;;;2.17;1.98;;;21.80;92.80;;;;;;4377414;32;20069;-69
2021/05/25 06:50:54;;;;;;;6.12;2.67;;;22.00;91.50;;;;;;4352484;32;20084;-67
2021/05/25 06:53:20;;;;;;;5.57;2.85;;;21.80;92.40;;;;;;4377105;32;20085;-71
2021/05/25 06:55:46;;;;;;;6.62;2.67;;;21.90;92.20;;;;;;4389707;32;20146;-71
2021/05/25 06:58:13;;;;;;;5.45;2.30;;;21.90;92.10;;;;;;4381688;32;20074;-70
2021/05/25 07:00:39;;;;;;;8.05;2.92;;;21.90;91.20;;;;;;4379712;32;20081;-68
2021/05/25 07:03:05;;;;;;;6.35;2.92;;;22.20;91.10;;;;;;4354097;32;20475;-68
2021/05/25 07:05:32;;;;;;;8.82;3.05;;;22.70;90.30;;;;;;4366895;32;20078;-70
2021/05/25 07:07:58;;;;;;;5.28;2.60;;;22.60;89.50;;;;;;4354697;32;20077;-68
2021/05/25 07:10:24;;;;;;;7.07;2.60;;;22.60;90.10;;;;;;4367043;32;20061;-69
2021/05/25 07:12:50;;;;;;;8.93;2.80;;;22.40;90.30;;;;;;4342862;32;20082;-69
2021/05/25 07:15:16;;;;;;;4.37;2.45;;;22.80;88.70;;;;;;4354170;32;20511;-69
2021/05/25 07:17:58;;;;;;;10.13;3.15;;;22.70;87.60;;;;;;4354063;32;20492;-68
2021/05/25 07:20:28;;;;;;;6.03;2.50;;;22.90;88.60;;;;;;4356374;32;20061;-67
2021/05/25 07:22:54;;;;;;;5.60;2.47;;;22.80;88.50;;;;;;4354228;32;20063;-68
2021/05/25 07:25:24;;;;;;;5.05;2.50;;;22.80;87.90;;;;;;4342119;32;20089;-68
2021/05/25 07:27:50;;;;;;;8.63;2.47;;;22.70;87.90;;;;;;4338757;32;20595;-69
2021/05/25 07:30:18;;;;;;;7.18;2.37;;;23.20;85.90;;;;;;4353859;32;20197;-67
2021/05/25 07:32:44;;;;;;;6.50;2.37;;;22.90;83.70;;;;;;4352018;32;20165;-70
2021/05/25 07:35:11;;;;;;;5.40;3.08;;;23.10;85.30;;;;;;4352349;32;20496;-71
2021/05/25 07:37:39;;;;;;;5.18;2.30;;;22.80;88.10;;;;;;4349935;32;20130;-72
2021/05/25 07:40:07;;;;;;;10.70;3.00;;;22.70;87.30;;;;;;4358850;32;20073;-70
2021/05/25 07:42:33;;;;;;;10.00;2.75;;;22.90;82.40;;;;;;4364512;32;20077;-69
2021/05/25 07:45:00;;;;;;;6.90;2.40;;;23.00;82.80;;;;;;4348694;32;20071;-69
2021/05/25 07:47:28;;;;;;;3.83;2.10;;;23.10;83.70;;;;;;4342891;32;20152;-69
2021/05/25 07:49:54;;;;;;;10.27;2.78;;;23.50;79.60;;;;;;4350943;32;20498;-70
2021/05/25 07:52:20;;;;;;;4.72;2.35;;;23.20;78.00;;;;;;4357129;32;20531;-68
2021/05/25 07:54:47;;;;;;;5.87;2.37;;;23.10;79.80;;;;;;4365687;32;20145;-68
2021/05/25 07:57:14;;;;;;;4.12;2.25;;;23.30;78.80;;;;;;4351492;32;20070;-69
2021/05/25 07:59:40;;;;;;;5.05;2.40;;;23.30;76.60;;;;;;4348720;32;20062;-75
2021/05/25 08:02:06;;;;;;;3.15;2.35;;;23.30;77.90;;;;;;4366569;32;20513;-75
2021/05/25 08:04:32;;;;;;;5.60;2.60;;;23.10;78.70;;;;;;4363049;32;20084;-74
2021/05/25 08:06:59;;;;;;;9.38;2.53;;;23.40;74.00;;;;;;4337502;32;20062;-72
2021/05/25 08:09:26;;;;;;;6.40;2.30;;;23.50;73.60;;;;;;4374472;32;20456;-72
2021/05/25 08:11:52;;;;;;;4.43;2.30;;;23.40;76.50;;;;;;4376951;32;20074;-75
2021/05/25 08:14:19;;;;;;;6.35;2.50;;;23.50;74.40;;;;;;4361660;32;20112;-71
2021/05/25 08:16:45;;;;;;;5.60;2.50;;;23.50;70.20;;;;;;4383975;32;20104;-72
2021/05/25 08:19:29;;;;;;;6.05;2.55;;;23.60;70.40;;;;;;4334723;32;20073;-71
2021/05/25 08:21:55;;;;;;;4.95;2.33;;;23.90;67.50;;;;;;4346454;32;20165;-68
2021/05/25 08:24:21;;;;;;;4.65;2.22;;;23.70;67.20;;;;;;4362421;32;20081;-68
2021/05/25 08:26:48;;;;;;;3.60;2.25;;;23.60;67.30;;;;;;4338606;32;20460;-70
2021/05/25 08:29:14;;;;;;;6.72;2.58;;;23.40;67.60;;;;;;4350461;32;20062;-68
2021/05/25 08:31:40;;;;;;;2.95;2.60;;;23.50;67.00;;;;;;4348490;32;20104;-69
2021/05/25 08:34:07;;;;;;;5.37;2.17;;;23.40;70.00;;;;;;4335583;32;20050;-71
2021/05/25 08:36:34;;;;;;;2.72;2.20;;;23.40;73.00;;;;;;4357835;32;20101;-68
2021/05/25 08:39:01;;;;;;;2.92;2.10;;;23.30;72.10;;;;;;4336812;32;20565;-70
2021/05/25 08:41:29;;;;;;;4.85;2.10;;;23.50;72.70;;;;;;4339256;32;20082;-69
2021/05/25 08:43:55;;;;;;;4.95;2.12;;;23.20;71.30;;;;;;4352042;32;20598;-67
2021/05/25 08:46:23;;;;;;;6.32;1.92;;;23.20;74.30;;;;;;4348355;32;20120;-68
2021/05/25 08:48:49;;;;;;;6.28;2.30;;;22.70;74.30;;;;;;4340050;32;20074;-69
2021/05/25 08:51:16;;;;;;;2.10;1.90;;;22.60;76.00;;;;;;4364716;32;20089;-66
2021/05/25 08:53:42;;;;;;;2.87;1.92;;;22.50;76.20;;;;;;4370030;32;20109;-67
2021/05/25 08:56:08;;;;;;;5.22;2.30;;;22.40;75.80;;;;;;4360720;32;20108;-67
2021/05/25 08:58:34;;;;;;;3.42;2.30;;;22.50;79.40;;;;;;4355513;32;20058;-68
2021/05/25 09:01:01;;;;;;;3.35;2.45;;;22.40;81.20;;;;;;4346731;32;20246;-72
2021/05/25 09:03:30;;;;;;;4.32;2.60;;;22.00;90.60;;;;;;4373365;32;20050;-73
2021/05/25 09:06:16;;;;;;;6.65;2.28;;;22.00;90.40;;;;;;4342823;32;20084;-70
2021/05/25 09:08:43;;;;;;;4.00;2.12;;;22.00;90.00;;;;;;4354339;32;20553;-70
2021/05/25 09:11:10;;;;;;;4.70;2.42;;;21.90;89.90;;;;;;4338621;32;20093;-66
2021/05/25 09:13:36;;;;;;;3.45;2.20;;;21.90;90.10;;;;;;4342457;32;20117;-66
2021/05/25 09:16:05;;;;;;;3.30;2.17;;;21.80;91.40;;;;;;4369073;32;20181;-65
2021/05/25 09:18:44;;;;;;;6.93;2.17;;;22.00;92.00;;;;;;4355386;32;20078;-63
2021/05/25 09:21:10;;;;;;;6.35;2.75;;;21.90;91.90;;;;;;4354858;32;20156;-70
2021/05/25 09:23:39;;;;;;;4.22;2.20;;;22.00;93.80;;;;;;4363467;32;20220;-66
2021/05/25 09:26:13;;;;;;;4.82;2.30;;;22.10;96.70;;;;;;4366185;32;20097;-67
2021/05/25 09:29:02;;;;;;;7.80;2.65;;;21.40;99.90;;;;;;4337610;32;20135;-70
2021/05/25 09:31:41;;;;;;;4.60;2.80;;;21.10;99.90;;;;;;4349675;32;20069;-70
2021/05/25 09:34:15;;;;;;;5.15;2.50;;;20.40;99.90;;;;;;4368398;32;20136;-71
2021/05/25 09:37:09;;;;;;;3.00;2.40;;;20.10;99.90;;;;;;4356446;32;20438;-70
2021/05/25 09:39:35;;;;;;;3.60;2.30;;;19.70;99.90;;;;;;4349499;32;20131;-65
2021/05/25 09:42:04;;;;;;;6.18;2.60;;;19.90;99.90;;;;;;4377849;32;20647;-64
2021/05/25 09:44:31;;;;;;;3.70;2.22;;;19.50;99.90;;;;;;4349895;32;20182;-70
2021/05/25 09:47:04;;;;;;;4.45;2.70;;;19.40;99.90;;;;;;4350755;32;20077;-70
2021/05/25 09:49:34;;;;;;;4.53;2.17;;;19.80;99.90;;;;;;4358859;32;20066;-72
2021/05/25 09:52:05;;;;;;;5.00;2.37;;;19.70;99.90;;;;;;4359938;32;20097;-68
2021/05/25 09:54:32;;;;;;;5.78;2.42;;;19.40;99.90;;;;;;4357341;32;20101;-64
2021/05/25 09:57:03;;;;;;;5.15;2.45;;;19.80;99.90;;;;;;4368381;32;20169;-66
2021/05/25 09:59:38;;;;;;;4.78;2.72;;;19.30;99.90;;;;;;4331706;32;20694;-64
2021/05/25 10:02:21;;;;;;;4.97;2.40;;;19.30;99.90;;;;;;4349248;32;20184;-63
2021/05/25 10:05:00;;;;;;;7.37;2.45;;;19.00;99.90;;;;;;4335607;32;20091;-65
2021/05/25 10:07:27;;;;;;;7.97;2.83;;;18.90;99.90;;;;;;4347046;32;20082;-65
2021/05/25 10:09:55;;;;;;;8.82;3.05;;;18.60;99.90;;;;;;4313075;32;20084;-65
2021/05/25 10:12:27;;;;;;;5.75;2.35;;;18.50;99.90;;;;;;4349455;32;20165;-65
2021/05/25 10:14:54;;;;;;;4.50;2.70;;;18.70;99.90;;;;;;4332981;32;20190;-65
2021/05/25 10:17:42;;;;;;;4.47;3.12;;;18.40;99.90;;;;;;4327516;32;20500;-65
2021/05/25 10:20:09;;;;;;;5.82;3.55;;;18.40;99.90;;;;;;4345832;32;20600;-65
2021/05/25 10:22:36;;;;;;;5.97;2.95;;;18.20;99.90;;;;;;4352302;32;20152;-64
2021/05/25 10:25:04;;;;;;;6.32;3.25;;;18.30;99.90;;;;;;4340336;32;20085;-65
2021/05/25 10:27:31;;;;;;;4.28;2.97;;;18.40;99.90;;;;;;4328286;32;20511;-65
2021/05/25 10:29:58;;;;;;;5.15;3.17;;;18.50;99.90;;;;;;4323426;32;20155;-65
2021/05/25 10:32:25;;;;;;;4.72;3.20;;;18.80;99.90;;;;;;4338124;32;20066;-65
2021/05/25 10:34:53;;;;;;;6.32;3.65;;;18.70;99.90;;;;;;4340696;32;20497;-66
2021/05/25 10:37:23;;;;;;;6.72;3.70;;;18.50;99.90;;;;;;4349725;32;20081;-65
2021/05/25 10:39:55;;;;;;;5.10;3.22;;;18.70;99.90;;;;;;4340523;32;20097;-68
2021/05/25 10:42:21;;;;;;;4.72;3.00;;;19.00;99.90;;;;;;4344405;32;20114;-63
2021/05/25 10:45:04;;;;;;;5.50;2.87;;;18.60;99.90;;;;;;4381385;32;20074;-63
2021/05/25 10:47:39;;;;;;;4.37;3.42;;;18.90;99.90;;;;;;4360886;32;20110;-63
2021/05/25 10:52:58;;;;;;;4.97;2.60;;;19.10;99.90;;;;;;4351039;32;20092;-62
2021/05/25 10:55:42;;;;;;;3.30;2.45;;;19.20;99.90;;;;;;4359432;32;20081;-62
2021/05/25 10:58:18;;;;;;;3.17;2.50;;;19.30;99.90;;;;;;4365400;32;20186;-64
2021/05/25 11:00:44;;;;;;;6.95;2.08;;;19.40;99.90;;;;;;4382153;32;20096;-63
2021/05/25 11:03:19;;;;;;;4.00;1.80;;;19.60;99.90;;;;;;4336304;32;20165;-62
2021/05/25 11:05:54;;;;;;;3.72;2.05;;;19.80;99.90;;;;;;4350060;32;20066;-64
2021/05/25 11:08:24;;;;;;;2.90;1.47;;;19.40;99.90;;;;;;4345240;32;20080;-67
2021/05/25 11:10:56;;;;;;;1.87;1.62;;;19.70;99.90;;;;;;4356448;32;20094;-66
2021/05/25 11:13:28;;;;;;;3.87;1.90;;;19.50;99.90;;;;;;4341405;32;20073;-63
2021/05/25 11:21:47;;;;;;;;;;;19.60;99.90;;;;;;4359565;32;20066;-63
2021/05/25 11:24:33;;;;;;;5.43;2.25;;;19.30;99.90;;;;;;4355609;32;20460;-62
2021/05/25 11:27:14;;;;;;;4.57;2.25;;;19.20;99.90;;;;;;4347851;32;20070;-63
2021/05/25 11:29:52;;;;;;;4.00;2.12;;;19.50;99.90;;;;;;4358382;32;20058;-63
2021/05/25 11:32:26;;;;;;;3.17;1.90;;;19.60;99.90;;;;;;4335444;32;20073;-63
2021/05/25 11:35:08;;;;;;;3.33;2.00;;;19.90;99.90;;;;;;4349379;32;20065;-63
2021/05/25 11:37:37;;;;;;;3.72;2.33;;;19.90;99.90;;;;;;4370376;32;20807;-64
2021/05/25 11:40:08;;;;;;;4.43;2.40;;;20.10;99.90;;;;;;4374690;32;20161;-62
2021/05/25 11:42:34;;;;;;;4.32;2.80;;;20.40;99.90;;;;;;4351143;32;20167;-64
2021/05/25 11:45:01;;;;;;;5.25;2.90;;;20.50;99.90;;;;;;4345668;32;20070;-62
2021/05/25 11:47:27;;;;;;;3.83;2.40;;;20.20;99.90;;;;;;4369291;32;20440;-63
2021/05/25 11:49:54;;;;;;;6.60;2.33;;;19.70;99.90;;;;;;4353587;32;20073;-63
2021/05/25 11:52:38;;;;;;;4.45;2.70;;;20.00;99.90;;;;;;4359699;32;20080;-64
2021/05/25 11:55:13;;;;;;;3.58;2.60;;;19.80;99.90;;;;;;4365161;32;20133;-64
2021/05/25 11:57:54;;;;;;;6.15;2.60;;;19.70;99.90;;;;;;4348612;32;20689;-64
2021/05/25 12:00:28;;;;;;;3.42;2.15;;;19.60;99.90;;;;;;4352430;32;20145;-62
2021/05/25 12:02:59;;;;;;;4.18;2.60;;;20.10;99.90;;;;;;4345733;32;20101;-61
2021/05/25 12:05:30;;;;;;;4.95;2.45;;;19.60;99.90;;;;;;4349652;32;20170;-63
2021/05/25 12:08:02;;;;;;;6.47;3.00;;;19.70;99.90;;;;;;4358029;32;20449;-65
2021/05/25 12:10:36;;;;;;;5.10;2.50;;;19.40;99.90;;;;;;4366942;32;20062;-63
2021/05/25 12:13:08;;;;;;;10.75;2.72;;;19.40;99.90;;;;;;4364659;32;20070;-64
2021/05/25 12:15:48;;;;;;;3.37;2.15;;;19.30;99.90;;;;;;4358088;32;20128;-62
2021/05/25 12:18:19;;;;;;;4.95;2.70;;;19.20;99.90;;;;;;4370366;32;20135;-63
2021/05/25 12:20:51;;;;;;;3.92;2.42;;;19.40;99.90;;;;;;4347172;32;20154;-62
2021/05/25 12:23:28;;;;;;;2.72;2.35;;;19.40;99.90;;;;;;4335353;32;20073;-66
2021/05/25 12:25:55;;;;;;;;;;;19.50;99.90;;;;;;4359611;32;20471;-64
2021/05/25 12:28:33;;;;;;;6.53;2.60;;;19.40;99.90;;;;;;4363005;32;20062;-63
2021/05/25 12:31:01;;;;;;;2.50;2.15;;;19.40;99.90;;;;;;4362534;32;20109;-68
2021/05/25 12:33:31;;;;;;;4.45;2.40;;;19.50;99.90;;;;;;4356317;32;20077;-69
2021/05/25 12:36:40;;;;;;;5.97;2.58;;;19.50;99.90;;;;;;4352607;32;20154;-62
2021/05/25 12:39:13;;;;;;;4.25;2.67;;;19.30;99.90;;;;;;4362334;32;20157;-62
2021/05/25 12:41:49;;;;;;;4.55;2.40;;;19.30;99.90;;;;;;4340188;32;20072;-61
2021/05/25 12:44:21;;;;;;;2.92;2.47;;;19.50;99.90;;;;;;4352179;32;20108;-61
2021/05/25 12:46:55;;;;;;;4.37;2.33;;;19.40;99.90;;;;;;4326271;32;20542;-65
2021/05/25 12:49:29;;;;;;;7.47;2.90;;;19.20;99.90;;;;;;4327621;32;20096;-68
2021/05/25 12:52:32;;;;;;;4.53;2.65;;;19.30;99.90;;;;;;4353794;32;20081;-66
2021/05/25 12:55:13;;;;;;;2.55;2.33;;;19.00;99.90;;;;;;4346915;32;20158;-68
2021/05/25 12:57:47;;;;;;;3.00;2.28;;;19.00;99.90;;;;;;4335928;32;20066;-67
2021/05/25 13:00:15;;;;;;;4.20;2.50;;;19.00;99.90;;;;;;4363452;32;20057;-65
2021/05/25 13:02:44;;;;;;;3.95;2.45;;;19.10;99.90;;;;;;4325098;32;20146;-65
2021/05/25 13:05:13;;;;;;;4.40;2.40;;;19.00;99.90;;;;;;4347925;32;20476;-62
2021/05/25 13:07:59;;;;;;;7.72;2.53;;;19.00;99.90;;;;;;4325533;32;20074;-64
2021/05/25 13:10:31;;;;;;;3.35;2.20;;;19.10;99.90;;;;;;4338107;32;20170;-64